Latest Weather Observations for Cape Nelson

IDV60801

Issued at 5:02 am EST Tuesday 4 August 2015 (issued every 30 minutes, with the page automatically refreshed every 10 minutes)

About weather observations | Map of weather stations | Latest weather observations for VIC | Other Formats
Station Details ID: 090184 Name: CAPE NELSON LIGHTHOUSE Lat: -38.43 Lon: 141.54 Height: 45.4 m
Data from the previous 72 hours. | See also: Recent months at Cape Nelson
Date/Time
EST
Temp
°C
App
Temp
°C
Dew
Point
Rel
Hum
%
Delta-T
°C
Wind Press
QNH
hPa
Press
MSL
hPa
Rain
since 9 am
mm
Dir
 
Spd
km/h
Gust
km/h
Spd
kts
Gust
kts
04/05:00am 8.6 2.1 4.6 76 1.8 W 28 37 15 20 1022.4 1022.5 0.4
04/04:30am 7.9 1.2 3.8 75 1.8 W 28 52 15 28 1022.7 1022.8 0.2
04/04:29am 7.9 1.2 3.6 74 1.8 W 28 52 15 28 1022.7 1022.8 0.2
04/04:00am 9.0 2.9 4.6 74 1.9 W 26 48 14 26 1022.6 1022.7 0.2
04/03:30am 8.3 1.5 3.0 69 2.3 W 28 39 15 21 1022.8 1022.9 0.2
04/03:00am 8.4 2.8 3.7 72 2.0 W 22 35 12 19 1023.2 1023.3 0.2
04/02:30am 8.3 3.2 3.9 74 1.9 NNW 20 37 11 20 1023.1 1023.2 0.2
04/02:00am 8.9 3.3 3.5 69 2.3 W 22 30 12 16 1023.3 1023.4 0.2
04/01:30am 8.2 5.2 3.9 74 1.9 N 9 15 5 8 1023.3 1023.4 0.2
04/01:00am 8.2 3.6 3.5 72 2.0 W 17 35 9 19 1023.6 1023.7 0.2
04/12:30am 8.9 3.7 2.7 65 2.6 WNW 19 30 10 16 1023.6 1023.7 0.2
04/12:00am 8.6 2.8 2.2 64 2.7 W 22 32 12 17 1023.8 1023.9 0.2
 
Date/Time
EST
Temp
°C
App
Temp
°C
Dew
Point
Rel
Hum
%
Delta-T
°C
Wind Press
QNH
hPa
Press
MSL
hPa
Rain
since 9 am
mm
Dir
 
Spd
km/h
Gust
km/h
Spd
kts
Gust
kts
03/11:30pm 8.4 4.6 3.7 72 2.0 NW 13 20 7 11 1023.9 1024.0 0.2
03/11:00pm 7.9 4.7 2.8 70 2.1 SSE 9 20 5 11 1024.0 1024.1 0.2
03/10:30pm 7.8 3.8 2.9 71 2.1 SE 13 24 7 13 1024.1 1024.2 0.2
03/10:00pm 7.8 3.2 3.5 74 1.8 ESE 17 30 9 16 1024.3 1024.4 0.2
03/09:30pm 8.5 4.1 2.7 67 2.5 SE 15 24 8 13 1024.3 1024.4 0.2
03/09:00pm 8.9 4.3 3.5 69 2.3 S 17 30 9 16 1024.4 1024.5 0.2
03/08:30pm 8.6 4.5 2.0 63 2.7 WNW 13 24 7 13 1024.4 1024.5 0.2
03/08:00pm 8.7 4.1 1.6 61 2.9 NNW 15 22 8 12 1024.3 1024.4 0.2
03/07:30pm 8.3 3.0 1.7 63 2.7 S 19 30 10 16 1024.2 1024.3 0.2
03/07:00pm 8.3 2.5 2.1 65 2.6 S 22 35 12 19 1023.7 1023.8 0.2
03/06:30pm 8.2 4.0 1.6 63 2.7 ESE 13 22 7 12 1023.4 1023.5 0.2
03/06:00pm 8.1 3.9 1.9 65 2.5 SSE 13 26 7 14 1023.3 1023.4 0.2
03/05:30pm 8.2 3.8 2.7 68 2.3 ESE 15 30 8 16 1023.1 1023.2 0.2
03/05:00pm 8.7 3.5 2.7 66 2.5 S 19 30 10 16 1022.8 1022.9 0.2
03/04:30pm 9.4 4.8 1.6 58 3.2 ENE 15 24 8 13 1022.6 1022.7 0.2
03/04:00pm 9.1 3.7 1.5 59 3.1 SSE 19 33 10 18 1022.4 1022.5 0.2
03/03:30pm 9.9 4.9 1.3 55 3.6 SSE 17 32 9 17 1022.1 1022.2 0.2
03/03:00pm 9.4 4.8 1.8 59 3.2 ESE 15 32 8 17 1021.8 1021.9 0.2
03/02:30pm 9.4 5.0 2.7 63 2.9 ENE 15 24 8 13 1021.7 1021.8 0.2
03/02:00pm 9.6 3.9 2.7 62 2.9 SSE 22 43 12 23 1021.7 1021.8 0.2
03/01:33pm 8.8 1.8 1.7 61 2.9 S 28 50 15 27 1021.7 1021.8 0.2
03/01:30pm 9.1 3.2 1.8 60 3.0 S 22 43 12 23 1021.6 1021.7 0.2
03/01:00pm 9.7 4.3 2.6 61 3.0 SSE 20 39 11 21 1021.4 1021.5 0.2
03/12:30pm 9.3 2.7 1.9 60 3.1 S 26 41 14 22 1021.3 1021.4 0.2
03/12:00pm 8.6 2.5 0.3 56 3.3 SSE 22 41 12 22 1021.4 1021.5 0.2
03/11:32am 9.2 3.1 2.5 63 2.8 SSE 24 52 13 28 1021.3 1021.4 0.2
03/11:30am 9.2 3.0 2.3 62 2.9 SE 24 44 13 24 1021.0 1021.1 0.2
03/11:00am 8.9 2.9 1.3 59 3.1 SSE 22 41 12 22 1020.9 1021.0 0.2
03/10:34am 7.8 1.0 2.9 71 2.1 SE 28 57 15 31 1020.5 1020.6 0.2
03/10:33am 8.2 1.5 3.5 72 2.0 SE 28 56 15 30 1020.3 1020.4 0.2
03/10:30am 8.3 0.8 3.4 71 2.1 SSE 32 54 17 29 1020.4 1020.5 0.2
03/10:21am 8.9 2.9 3.1 67 2.5 E 24 54 13 29 1020.4 1020.5 0.2
03/10:00am 8.9 3.3 1.3 59 3.1 E 20 43 11 23 1019.6 1019.7 0.2
03/09:30am 7.4 2.0 2.3 70 2.1 ENE 20 35 11 19 1019.3 1019.4 0.2
03/09:03am 7.6 1.9 3.1 73 1.9 E 22 63 12 34 1019.1 1019.2 0.0
03/09:00am 7.8 2.2 3.3 73 1.9 ENE 22 43 12 23 1019.0 1019.1 5.6
03/08:30am 8.8 2.3 2.4 64 2.7 S 26 59 14 32 1018.0 1018.0 5.4
03/08:07am 8.8 1.9 2.4 64 2.7 ESE 28 61 15 33 1017.8 1017.8 5.4
03/08:00am 9.1 2.6 2.7 64 2.7 ESE 26 48 14 26 1017.3 1017.3 5.4
03/07:32am 8.5 1.9 2.3 65 2.6 E 26 50 14 27 1016.7 1016.7 5.4
03/07:30am 8.6 2.1 2.8 67 2.5 ESE 26 46 14 25 1016.7 1016.7 5.4
03/07:13am 8.8 2.0 3.2 68 2.4 ENE 28 50 15 27 1016.4 1016.4 5.4
03/07:00am 9.0 3.1 3.8 70 2.3 NE 24 43 13 23 1016.0 1016.0 5.4
03/06:37am 8.2 1.4 3.3 71 2.1 NE 28 52 15 28 1015.5 1015.5 5.4
03/06:30am 7.7 0.9 3.2 73 1.9 NE 28 54 15 29 1015.4 1015.4 5.4
03/06:00am 6.8 0.0 3.2 78 1.5 NNE 28 52 15 28 1015.3 1015.3 5.4
03/05:39am 8.0 1.9 4.8 80 1.4 NNW 26 46 14 25 1014.8 1014.8 4.8
03/05:30am 7.5 1.3 4.3 80 1.4 NE 26 54 14 29 1014.5 1014.5 4.8
03/05:00am 7.8 1.4 5.3 84 1.1 NNE 28 48 15 26 1014.0 1014.0 4.8
03/04:42am 8.5 0.6 4.5 76 1.8 WNW 35 63 19 34 1013.4 1013.4 4.6
03/04:30am 8.6 -0.1 4.2 74 1.9 WNW 39 67 21 36 1013.6 1013.6 4.4
03/04:10am 8.4 -0.8 5.3 81 1.4 WNW 43 74 23 40 1013.2 1013.2 4.2
03/04:05am 9.4 -1.2 5.2 75 1.9 W 50 76 27 41 1013.0 1013.0 4.2
03/04:00am 9.0 -0.9 4.8 75 1.9 W 46 76 25 41 1013.3 1013.3 4.2
03/03:57am 8.6 -1.5 4.0 73 2.0 W 46 76 25 41 1013.3 1013.3 4.2
03/03:46am 8.5 -0.9 5.4 81 1.4 W 44 82 24 44 1013.0 1013.0 4.2
03/03:43am 8.6 -1.9 5.4 80 1.4 W 50 82 27 44 1012.9 1012.9 4.2
03/03:39am 8.5 -1.8 4.5 76 1.8 WNW 48 82 26 44 1013.1 1013.1 4.0
03/03:38am 8.5 -1.5 4.3 75 1.8 WNW 46 82 25 44 1013.1 1013.1 4.0
03/03:34am 9.0 1.1 4.4 73 2.0 NW 35 76 19 41 1012.7 1012.7 4.0
03/03:30am 9.1 1.6 4.7 74 2.0 NW 33 56 18 30 1012.5 1012.5 4.0
03/03:27am 9.2 1.9 5.4 77 1.7 NW 33 57 18 31 1012.6 1012.6 4.0
03/03:26am 9.3 1.6 5.5 77 1.7 NW 35 59 19 32 1012.5 1012.5 4.0
03/03:00am 8.6 0.7 6.1 84 1.1 WNW 37 65 20 35 1012.8 1012.8 4.0
03/02:53am 8.3 -1.5 5.4 82 1.3 WNW 46 80 25 43 1012.7 1012.7 4.0
03/02:51am 8.1 -3.3 4.9 80 1.4 W 54 80 29 43 1012.6 1012.6 4.0
03/02:36am 8.7 0.0 5.8 82 1.3 WNW 41 74 22 40 1012.6 1012.6 3.6
03/02:30am 8.9 1.5 4.9 76 1.8 WNW 33 69 18 37 1012.1 1012.1 3.4
03/02:29am 9.7 2.5 5.9 77 1.7 WNW 33 69 18 37 1011.8 1011.8 3.2
03/02:27am 10.1 1.8 6.1 76 1.9 WNW 39 80 21 43 1012.1 1012.1 3.2
03/02:24am 10.0 -0.1 5.8 75 1.9 W 48 80 26 43 1012.5 1012.5 3.2
03/02:22am 10.4 -0.4 5.8 73 2.1 W 52 80 28 43 1012.1 1012.1 3.2
03/02:00am 10.2 -0.9 6.2 76 1.9 W 54 78 29 42 1012.3 1012.3 3.2
03/01:39am 9.9 -1.4 5.3 73 2.1 W 54 80 29 43 1011.7 1011.7 3.2
03/01:38am 10.5 -0.7 6.1 74 2.0 W 54 80 29 43 1011.8 1011.8 3.2
03/01:30am 10.6 -1.0 5.6 71 2.3 W 56 80 30 43 1011.9 1011.9 3.2
03/01:00am 10.1 -2.2 6.8 80 1.6 W 61 89 33 48 1011.9 1011.9 3.2
03/12:53am 9.6 -1.2 6.0 78 1.7 W 52 89 28 48 1011.8 1011.8 3.2
03/12:52am 9.7 -0.6 6.4 80 1.5 W 50 89 27 48 1011.9 1011.9 3.2
03/12:45am 9.4 0.8 6.7 83 1.3 WNW 41 69 22 37 1011.7 1011.7 3.2
03/12:41am 10.0 1.6 7.3 83 1.3 WNW 41 67 22 36 1011.2 1011.2 3.2
03/12:40am 10.1 1.3 7.2 82 1.4 WNW 43 67 23 36 1011.2 1011.2 3.2
03/12:30am 9.8 -1.3 6.3 79 1.6 W 54 72 29 39 1011.7 1011.7 3.2
03/12:00am 10.4 -0.6 6.7 78 1.7 W 54 78 29 42 1011.5 1011.5 2.8
 
Date/Time
EST
Temp
°C
App
Temp
°C
Dew
Point
Rel
Hum
%
Delta-T
°C
Wind Press
QNH
hPa
Press
MSL
hPa
Rain
since 9 am
mm
Dir
 
Spd
km/h
Gust
km/h
Spd
kts
Gust
kts
02/11:37pm 10.2 -1.5 6.2 76 1.9 W 57 95 31 51 1011.1 1011.1 2.8
02/11:30pm 10.3 -0.4 6.6 78 1.7 W 52 74 28 40 1011.3 1011.3 2.8
02/11:00pm 10.7 -0.9 5.9 72 2.2 W 56 82 30 44 1011.1 1011.1 2.8
02/10:30pm 10.6 0.4 6.9 78 1.8 W 50 78 27 42 1011.4 1011.4 2.8
02/10:00pm 10.1 -0.5 7.0 81 1.5 W 52 76 28 41 1011.2 1011.2 2.8
02/09:30pm 10.3 0.5 7.0 80 1.6 W 48 78 26 42 1011.1 1011.1 2.6
02/09:00pm 10.2 1.2 7.3 82 1.4 W 44 74 24 40 1011.1 1011.1 2.6
02/08:47pm 10.3 0.8 6.8 79 1.7 W 46 80 25 43 1011.0 1011.0 2.6
02/08:30pm 10.3 2.6 7.2 81 1.5 W 37 59 20 32 1010.8 1010.8 2.4
02/08:00pm 9.2 -1.0 5.4 77 1.7 W 48 83 26 45 1010.9 1010.9 2.2
02/07:30pm 9.7 -0.8 5.5 75 1.9 W 50 82 27 44 1010.6 1010.6 2.0
02/07:00pm 10.5 0.8 5.7 72 2.2 W 46 78 25 42 1010.6 1010.6 1.8
02/06:30pm 10.7 1.4 5.7 71 2.3 W 44 69 24 37 1010.3 1010.3 1.8
02/06:00pm 10.6 1.3 5.2 69 2.5 W 43 74 23 40 1010.2 1010.2 1.8
02/05:30pm 10.5 2.2 6.3 75 2.0 W 39 61 21 33 1010.2 1010.2 1.8
02/05:16pm 10.7 1.0 5.7 71 2.3 W 46 74 25 40 1010.1 1010.1 1.8
02/05:14pm 10.7 -0.2 5.7 71 2.3 W 52 74 28 40 1010.1 1010.1 1.8
02/05:12pm 10.8 -0.9 5.3 69 2.5 W 56 76 30 41 1010.1 1010.1 1.8
02/05:07pm 10.7 -0.7 4.8 67 2.7 W 54 76 29 41 1010.0 1010.0 1.8
02/05:00pm 10.9 1.8 5.7 70 2.4 W 43 69 23 37 1010.0 1010.0 1.8
02/04:30pm 10.7 1.9 5.7 71 2.3 W 41 69 22 37 1009.9 1009.9 1.8
02/04:00pm 10.7 1.0 5.9 72 2.2 W 46 76 25 41 1009.7 1009.7 1.8
02/03:30pm 11.0 1.5 6.6 74 2.1 W 46 70 25 38 1009.7 1009.7 1.8
02/03:00pm 11.1 1.3 7.0 76 2.0 W 48 70 26 38 1009.5 1009.5 1.8
02/02:55pm 10.8 2.2 6.7 76 1.9 W 41 70 22 38 1009.4 1009.4 1.8
02/02:39pm 10.9 3.8 8.1 83 1.4 W 35 54 19 29 1009.4 1009.4 1.8
02/02:32pm 10.7 0.7 7.9 83 1.4 W 50 78 27 42 1009.4 1009.4 1.8
02/02:30pm 10.7 -0.4 7.8 82 1.4 W 56 85 30 46 1009.4 1009.4 1.8
02/02:03pm 10.7 0.6 7.6 81 1.5 W 50 69 27 37 1009.2 1009.2 1.6
02/02:00pm 10.2 -0.4 6.9 80 1.6 W 52 69 28 37 1009.0 1009.0 1.6
02/01:30pm 10.1 0.8 7.7 85 1.2 W 46 65 25 35 1008.8 1008.8 1.0
02/01:00pm 10.8 2.7 8.7 87 1.0 W 41 65 22 35 1009.3 1009.3 1.0
02/12:30pm 10.9 1.9 8.8 87 1.0 W 46 76 25 41 1009.5 1009.5 1.0
02/12:00pm 10.9 1.0 8.1 83 1.4 W 50 74 27 40 1009.3 1009.3 0.6
02/11:30am 11.5 1.7 8.7 83 1.4 WNW 50 74 27 40 1009.6 1009.6 0.2
02/11:06am 12.0 2.5 8.5 79 1.7 WNW 48 67 26 36 1009.8 1009.8 0.0
02/11:00am 12.1 2.7 8.6 79 1.7 WNW 48 65 26 35 1009.9 1009.9 0.0
02/10:34am 11.9 1.8 7.2 73 2.3 WNW 50 72 27 39 1009.8 1009.8 0.0
02/10:30am 12.0 1.5 7.5 74 2.2 WNW 52 69 28 37 1009.8 1009.8 0.0
02/10:00am 11.4 2.1 7.7 78 1.8 WNW 46 70 25 38 1010.0 1010.0 0.0
02/09:41am 10.6 3.6 8.5 87 1.0 NW 35 54 19 29 1010.3 1010.3 0.0
02/09:30am 9.6 2.3 7.4 86 1.0 NW 35 50 19 27 1010.6 1010.6 0.0
02/09:00am 9.6 2.2 6.9 83 1.3 NW 35 50 19 27 1010.5 1010.5 3.0
02/08:53am 10.0 1.1 6.9 81 1.5 NW 43 61 23 33 1010.5 1010.5 3.0
02/08:30am 9.7 0.3 7.0 83 1.3 WNW 46 63 25 34 1010.4 1010.4 3.0
02/08:20am 9.1 1.5 7.7 91 0.7 NW 37 78 20 42 1010.4 1010.4 3.0
02/08:17am 8.9 2.1 7.8 93 0.5 NW 33 56 18 30 1010.6 1010.6 3.0
02/08:00am 8.4 1.1 7.2 92 0.6 NW 35 46 19 25 1010.6 1010.6 3.0
02/07:30am 7.9 0.9 6.7 92 0.6 NW 33 46 18 25 1010.9 1010.9 2.6
02/07:00am 7.9 1.1 6.7 92 0.6 NW 32 46 17 25 1010.7 1010.7 2.6
02/06:43am 8.1 2.1 6.9 92 0.6 NW 28 50 15 27 1010.7 1010.7 2.6
02/06:30am 7.9 0.9 6.7 92 0.6 NW 33 44 18 24 1010.8 1010.8 2.6
02/06:05am 7.8 1.7 6.6 92 0.6 NW 28 46 15 25 1011.2 1011.2 2.4
02/06:00am 7.7 1.2 6.5 92 0.6 NW 30 43 16 23 1011.1 1011.1 2.4
02/05:41am 8.4 2.1 7.2 92 0.6 NW 30 48 16 26 1011.3 1011.3 2.4
02/05:30am 8.1 1.1 6.9 92 0.6 NW 33 44 18 24 1011.5 1011.5 2.4
02/05:00am 7.9 1.1 6.8 93 0.5 NW 32 44 17 24 1011.5 1011.5 2.4
02/04:30am 7.6 0.7 6.4 92 0.5 NW 32 43 17 23 1011.9 1011.9 2.2
02/04:00am 7.5 1.7 6.1 91 0.6 NW 26 39 14 21 1012.2 1012.2 2.0
02/03:30am 8.0 2.3 6.5 90 0.7 NW 26 37 14 20 1012.5 1012.5 1.8
02/03:00am 8.6 1.9 7.2 91 0.7 WNW 32 52 17 28 1012.8 1012.8 1.8
02/02:57am 8.5 2.6 7.3 92 0.6 NW 28 50 15 27 1012.9 1012.9 1.8
02/02:30am 8.0 2.3 6.8 92 0.6 NW 26 37 14 20 1013.0 1013.0 1.6
02/02:00am 7.6 1.8 6.4 92 0.5 NW 26 39 14 21 1013.5 1013.5 1.6
02/01:30am 7.5 1.7 6.1 91 0.6 NW 26 35 14 19 1013.6 1013.6 1.4
02/01:00am 8.0 3.0 6.5 90 0.7 NW 22 33 12 18 1014.0 1014.0 1.2
02/12:30am 8.0 2.5 6.1 88 0.9 NW 24 39 13 21 1014.2 1014.2 0.8
02/12:00am 8.3 2.0 5.9 85 1.1 NW 28 41 15 22 1014.4 1014.4 0.4
 
Date/Time
EST
Temp
°C
App
Temp
°C
Dew
Point
Rel
Hum
%
Delta-T
°C
Wind Press
QNH
hPa
Press
MSL
hPa
Rain
since 9 am
mm
Dir
 
Spd
km/h
Gust
km/h
Spd
kts
Gust
kts
01/11:30pm 8.5 3.1 6.3 86 1.0 NW 24 32 13 17 1014.4 1014.4 0.4
01/11:00pm 8.4 2.5 5.9 84 1.1 NW 26 39 14 21 1014.8 1014.8 0.4
01/10:30pm 8.7 3.1 5.6 81 1.4 NW 24 33 13 18 1015.1 1015.1 0.4
01/10:00pm 8.3 2.7 5.2 81 1.4 NW 24 37 13 20 1015.1 1015.1 0.4
01/09:30pm 7.9 3.3 5.7 86 1.0 NW 19 26 10 14 1015.2 1015.2 0.4
01/09:00pm 7.7 3.9 5.7 87 0.9 NNW 15 22 8 12 1015.2 1015.2 0.4
01/08:30pm 8.1 4.7 5.9 86 1.0 NNW 13 19 7 10 1015.3 1015.3 0.4
01/08:00pm 8.3 4.4 5.4 82 1.3 NNW 15 22 8 12 1015.1 1015.1 0.2
01/07:30pm 9.2 3.5 5.0 75 1.9 NW 24 35 13 19 1015.2 1015.2 0.2
01/07:00pm 9.5 4.2 4.9 73 2.1 WNW 22 32 12 17 1015.0 1015.0 0.2
01/06:30pm 9.1 3.4 4.7 74 2.0 WNW 24 32 13 17 1015.0 1015.0 0.2
01/06:00pm 10.0 5.0 4.6 69 2.4 W 20 30 11 16 1015.0 1015.0 0.2
01/05:30pm 10.0 4.9 4.2 67 2.6 W 20 35 11 19 1014.9 1014.9 0.2
01/05:00pm 10.2 4.8 4.4 67 2.6 W 22 39 12 21 1014.7 1014.7 0.2
01/04:30pm 10.3 4.3 3.6 63 2.9 W 24 39 13 21 1014.6 1014.6 0.2
01/04:00pm 10.5 4.2 4.0 64 2.9 WNW 26 37 14 20 1014.5 1014.5 0.2
01/03:30pm 11.1 4.7 3.2 58 3.5 WNW 26 35 14 19 1014.3 1014.3 0.2
01/03:00pm 10.9 5.4 4.1 63 3.0 W 22 33 12 18 1013.9 1013.9 0.2
01/02:30pm 10.4 4.6 4.3 66 2.7 W 24 35 13 19 1014.1 1014.1 0.2
01/02:17pm 10.0 3.2 3.1 62 3.0 W 28 46 15 25 1014.0 1014.0 0.2
01/02:00pm 11.0 5.2 4.2 63 3.0 WNW 24 37 13 20 1014.5 1014.5 0.2
01/01:30pm 10.5 3.6 2.6 58 3.4 W 28 43 15 23 1014.3 1014.3 0.2
01/01:00pm 10.9 4.6 1.7 53 3.9 W 24 41 13 22 1014.6 1014.6 0.2
01/12:30pm 10.9 4.7 2.0 54 3.8 WNW 24 43 13 23 1014.8 1014.8 0.2
01/12:00pm 10.9 5.2 2.7 57 3.5 NW 22 41 12 22 1014.5 1014.5 0.2
01/11:30am 10.9 4.8 2.7 57 3.5 W 24 35 13 19 1014.7 1014.7 0.2
01/11:00am 10.4 3.2 0.4 50 4.1 W 28 43 15 23 1014.6 1014.6 0.2
01/10:30am 10.3 5.0 1.7 55 3.6 NW 19 41 10 22 1014.6 1014.6 0.2
01/10:00am 9.9 4.9 1.5 56 3.5 NNE 17 28 9 15 1014.2 1014.2 0.2
01/09:30am 10.3 5.1 3.6 63 2.9 NNW 20 39 11 21 1014.0 1014.0 0.0
01/09:00am 9.8 4.3 0.9 54 3.7 NE 19 35 10 19 1013.5 1013.5 7.0
01/08:30am 9.7 4.4 2.1 59 3.2 NE 19 32 10 17 1013.0 1013.0 7.0
01/08:00am 9.6 4.1 0.8 54 3.6 NE 19 30 10 16 1012.2 1012.2 7.0
01/07:30am 9.6 4.2 2.5 61 3.0 NNW 20 32 11 17 1011.8 1011.8 7.0
01/07:00am 9.8 4.3 4.0 67 2.6 NNW 22 43 12 23 1011.0 1011.0 7.0
01/06:30am 9.5 3.2 3.9 68 2.5 N 26 50 14 27 1010.1 1010.1 7.0
01/06:22am 9.2 3.2 3.4 67 2.5 N 24 50 13 27 1009.9 1009.9 7.0
01/06:00am 9.4 3.9 6.1 80 1.5 NNW 24 46 13 25 1009.5 1009.5 7.0
01/05:54am 9.0 3.5 6.1 82 1.3 N 24 46 13 25 1009.6 1009.6 7.0
01/05:53am 9.0 4.0 6.3 83 1.2 N 22 46 12 25 1009.6 1009.6 7.0
01/05:30am 9.1 4.8 7.7 91 0.7 NNE 20 26 11 14 1009.4 1009.4 7.0

Other Formats:

Comma delimited format used in spreadsheet applications
http://www.bom.gov.au/fwo/IDV60801/IDV60801.94826.axf

JavaScript Object Notation format (JSON) in row-major order
http://www.bom.gov.au/fwo/IDV60801/IDV60801.94826.json